sim
Sign-in with your pilot id or email,
or register
Callsign
Passwort

Schedule Details

Flight Number: OEC433
Departure: Amsterdam Schiphol Airport (EHAM) at Time
Arrival: Munich Airport (EDDM) at Time

Weather Information
Getting current METAR information for EHAM 211855Z 05001KT CAVOK 15/12 Q1014 NOSIG
Getting current METAR information for EDDM 211850Z 23001KT CAVOK 14/12 Q1016 NOSIG

Schedule Frequency

Route Map